Time;durP1;ratioP1;P1;durP2;ratioP2;P2;SDS_P1;SDS_P2;PMS_P1;PMS_P2;Temp;Humidity;BMP_temperature;BMP_pressure;BME280_temperature;BME280_humidity;BME280_pressure;Samples;Min_cycle;Max_cycle;Signal;HPM_P1;HPM_P2
2023/08/31 00:02:03;;;;;;;3.23;2.80;;;12.70;99.90;;;;;;5116514;28;20171;-78
2023/08/31 00:04:29;;;;;;;2.90;2.70;;;12.70;99.90;;;;;;5116383;28;20645;-79
2023/08/31 00:06:56;;;;;;;3.93;2.90;;;12.70;99.90;;;;;;5116346;28;20171;-80
2023/08/31 00:09:23;;;;;;;3.40;3.07;;;12.80;99.90;;;;;;5114886;28;20171;-79
2023/08/31 00:11:50;;;;;;;3.33;3.03;;;12.70;99.90;;;;;;5116398;28;20168;-79
2023/08/31 00:14:16;;;;;;;3.43;3.23;;;12.70;99.90;;;;;;5116208;28;20218;-79
2023/08/31 00:16:41;;;;;;;3.90;3.60;;;12.70;99.90;;;;;;5116147;28;20522;-79
2023/08/31 00:19:07;;;;;;;4.30;3.90;;;12.70;99.90;;;;;;5115952;28;20222;-80
2023/08/31 00:21:33;;;;;;;7.27;4.33;;;12.70;99.90;;;;;;5116048;28;20175;-78
2023/08/31 00:23:59;;;;;;;3.83;3.43;;;12.70;99.90;;;;;;5115590;28;20527;-78
2023/08/31 00:26:25;;;;;;;4.47;3.80;;;12.70;99.90;;;;;;5115846;28;20174;-80
2023/08/31 00:28:50;;;;;;;4.47;4.13;;;12.70;99.90;;;;;;5115986;28;20551;-79
2023/08/31 00:31:16;;;;;;;4.50;4.20;;;12.70;99.90;;;;;;5116007;28;20521;-79
2023/08/31 00:33:43;;;;;;;4.53;4.10;;;12.70;99.90;;;;;;5115763;28;20187;-80
2023/08/31 00:36:08;;;;;;;4.60;4.30;;;12.80;99.90;;;;;;5115680;28;20178;-79
2023/08/31 00:38:34;;;;;;;4.30;3.97;;;12.80;99.90;;;;;;5115347;28;20180;-79
2023/08/31 00:41:00;;;;;;;5.17;4.50;;;12.90;99.90;;;;;;5115613;28;20170;-79
2023/08/31 00:43:26;;;;;;;4.53;4.17;;;13.00;99.90;;;;;;5115308;28;20197;-79
2023/08/31 00:45:58;;;;;;;5.00;4.50;;;13.00;99.90;;;;;;5115746;28;20246;-80
2023/08/31 00:48:24;;;;;;;4.40;3.63;;;13.00;99.90;;;;;;5115696;28;20646;-79
2023/08/31 00:50:51;;;;;;;4.30;3.90;;;13.00;99.90;;;;;;5115616;28;20194;-78
2023/08/31 00:53:17;;;;;;;6.03;3.97;;;13.00;99.90;;;;;;5115179;28;20167;-79
2023/08/31 00:55:47;;;;;;;4.77;3.83;;;13.00;99.90;;;;;;5115543;28;20175;-79
2023/08/31 00:58:13;;;;;;;4.37;3.97;;;13.00;99.90;;;;;;5115566;28;20178;-79
2023/08/31 01:01:07;;;;;;;4.40;4.00;;;13.00;99.90;;;;;;5115265;28;20255;-79
2023/08/31 01:03:37;;;;;;;5.33;4.10;;;12.90;99.90;;;;;;5115264;28;20650;-79
2023/08/31 01:06:10;;;;;;;4.53;4.13;;;12.90;99.90;;;;;;5115231;28;20167;-78
2023/08/31 01:08:39;;;;;;;4.90;4.50;;;12.90;99.90;;;;;;5115027;28;20159;-78
2023/08/31 01:11:18;;;;;;;5.93;4.27;;;12.90;99.90;;;;;;5113765;28;20259;-79
2023/08/31 01:13:50;;;;;;;5.03;4.00;;;12.80;99.90;;;;;;5115152;28;20248;-79
2023/08/31 01:16:17;;;;;;;7.97;4.27;;;12.80;99.90;;;;;;5115032;28;20174;-79
2023/08/31 01:18:45;;;;;;;6.00;4.50;;;12.80;99.90;;;;;;5114717;28;20316;-79
2023/08/31 01:21:37;;;;;;;6.70;4.27;;;12.80;99.90;;;;;;5114646;27;20254;-80
2023/08/31 01:24:04;;;;;;;5.67;4.10;;;12.90;99.90;;;;;;5115077;28;20175;-79
2023/08/31 01:26:30;;;;;;;5.73;4.30;;;12.90;99.90;;;;;;5114800;28;20159;-78
2023/08/31 01:28:56;;;;;;;5.40;4.27;;;12.90;99.90;;;;;;5114741;28;20643;-79
2023/08/31 01:31:22;;;;;;;6.40;4.80;;;12.80;99.90;;;;;;5114932;28;20206;-79
2023/08/31 01:33:48;;;;;;;5.47;4.40;;;12.90;99.90;;;;;;5114425;28;20653;-79
2023/08/31 01:36:32;;;;;;;4.70;4.17;;;12.90;99.90;;;;;;5113040;28;20179;-79
2023/08/31 01:39:10;;;;;;;6.03;4.60;;;12.90;99.90;;;;;;5114715;28;20163;-80
2023/08/31 01:41:38;;;;;;;4.83;4.43;;;12.90;99.90;;;;;;5114679;28;20219;-79
2023/08/31 01:44:05;;;;;;;5.63;4.27;;;12.80;99.90;;;;;;5114711;28;20171;-80
2023/08/31 01:46:31;;;;;;;6.37;4.77;;;12.80;99.90;;;;;;5114654;28;20240;-79
2023/08/31 01:48:57;;;;;;;5.67;4.73;;;12.90;99.90;;;;;;5113322;28;20570;-80
2023/08/31 01:51:22;;;;;;;6.17;4.90;;;12.90;99.90;;;;;;5114112;28;20254;-79
2023/08/31 01:53:48;;;;;;;5.50;4.57;;;12.90;99.90;;;;;;5113643;28;20218;-79
2023/08/31 01:56:14;;;;;;;6.97;4.17;;;12.90;99.90;;;;;;5114281;28;20229;-80
2023/08/31 01:58:39;;;;;;;6.70;4.73;;;12.80;99.90;;;;;;5114311;28;20202;-79
2023/08/31 02:01:05;;;;;;;4.80;4.40;;;12.80;99.90;;;;;;5114357;28;20171;-80
2023/08/31 02:03:30;;;;;;;6.70;4.33;;;12.90;99.90;;;;;;5113062;28;20228;-79
2023/08/31 02:05:57;;;;;;;5.93;4.57;;;12.90;99.90;;;;;;5113976;28;20260;-79
2023/08/31 02:08:22;;;;;;;4.63;4.23;;;12.80;99.90;;;;;;5114139;28;20172;-79
2023/08/31 02:10:48;;;;;;;4.80;4.30;;;12.80;99.90;;;;;;5114019;28;20175;-79
2023/08/31 02:13:14;;;;;;;5.23;4.27;;;12.80;99.90;;;;;;5114080;28;20668;-79
2023/08/31 02:15:40;;;;;;;7.10;3.93;;;12.80;99.90;;;;;;5114013;28;20206;-79
2023/08/31 02:18:07;;;;;;;4.83;4.07;;;12.80;99.90;;;;;;5113993;28;20171;-79
2023/08/31 02:20:34;;;;;;;7.07;4.10;;;12.80;99.90;;;;;;5113419;28;20211;-79
2023/08/31 02:23:00;;;;;;;4.77;4.10;;;12.90;99.90;;;;;;5113907;28;20174;-80
2023/08/31 02:25:27;;;;;;;4.63;4.17;;;12.80;99.90;;;;;;5113890;28;20171;-79
2023/08/31 02:27:53;;;;;;;7.77;4.33;;;12.80;99.90;;;;;;5114020;28;20611;-80
2023/08/31 02:30:19;;;;;;;5.93;4.40;;;12.80;99.90;;;;;;5113873;28;20224;-79
2023/08/31 02:32:45;;;;;;;4.90;4.40;;;12.80;99.90;;;;;;5112548;28;20561;-80
2023/08/31 02:35:12;;;;;;;8.80;4.60;;;12.80;99.90;;;;;;5113509;28;20790;-80
2023/08/31 02:37:37;;;;;;;7.73;4.23;;;12.80;99.90;;;;;;5113772;28;20183;-79
2023/08/31 02:40:04;;;;;;;7.20;4.13;;;12.80;99.90;;;;;;5112315;28;20653;-79
2023/08/31 02:42:30;;;;;;;4.70;4.20;;;12.90;99.90;;;;;;5113474;28;20206;-79
2023/08/31 02:44:55;;;;;;;4.10;3.80;;;12.80;99.90;;;;;;5113663;28;20198;-81
2023/08/31 02:47:21;;;;;;;5.27;4.37;;;12.90;99.90;;;;;;5113642;28;20192;-79
2023/08/31 02:49:47;;;;;;;4.53;4.13;;;12.90;99.90;;;;;;5111956;28;20703;-79
2023/08/31 02:52:13;;;;;;;6.03;4.03;;;12.90;99.90;;;;;;5113546;28;20171;-79
2023/08/31 02:54:39;;;;;;;6.53;4.33;;;12.90;99.90;;;;;;5113529;28;20539;-80
2023/08/31 02:57:04;;;;;;;7.03;4.33;;;12.90;99.90;;;;;;5112144;28;20178;-80
2023/08/31 02:59:30;;;;;;;4.27;3.80;;;12.90;99.90;;;;;;5113465;28;20472;-79
2023/08/31 03:01:56;;;;;;;6.83;3.93;;;12.90;99.90;;;;;;5113664;28;20258;-79
2023/08/31 03:04:21;;;;;;;5.87;4.10;;;12.90;99.90;;;;;;5113072;28;20197;-79
2023/08/31 03:06:47;;;;;;;7.43;4.33;;;12.90;99.90;;;;;;5116724;28;20529;-78
2023/08/31 03:09:13;;;;;;;6.17;4.13;;;12.90;99.90;;;;;;5116343;28;20171;-78
2023/08/31 03:11:39;;;;;;;5.93;4.10;;;12.90;99.90;;;;;;5117626;28;20175;-78
2023/08/31 03:14:05;;;;;;;4.73;4.23;;;13.00;99.90;;;;;;5117277;28;20293;-79
2023/08/31 03:16:30;;;;;;;5.00;4.23;;;13.10;99.90;;;;;;5115974;28;20258;-79
2023/08/31 03:18:56;;;;;;;7.33;4.23;;;13.10;99.90;;;;;;5116460;28;20577;-79
2023/08/31 03:21:22;;;;;;;6.20;3.87;;;13.10;99.90;;;;;;5115579;28;20171;-79
2023/08/31 03:23:47;;;;;;;5.13;4.00;;;13.10;99.90;;;;;;5117006;28;20674;-79
2023/08/31 03:26:13;;;;;;;4.17;3.80;;;13.10;99.90;;;;;;5117301;28;20677;-79
2023/08/31 03:28:40;;;;;;;5.00;3.90;;;13.10;99.90;;;;;;5117274;28;20207;-79
2023/08/31 03:31:06;;;;;;;5.47;4.00;;;13.00;99.90;;;;;;5116948;28;20531;-78
2023/08/31 03:33:31;;;;;;;5.30;4.03;;;13.00;99.90;;;;;;5116326;28;20175;-79
2023/08/31 03:36:04;;;;;;;7.07;4.20;;;13.10;99.90;;;;;;5116528;28;20177;-79
2023/08/31 03:38:37;;;;;;;3.90;3.53;;;13.00;99.90;;;;;;5117138;28;20321;-79
2023/08/31 03:41:03;;;;;;;7.07;4.03;;;13.00;99.90;;;;;;5116770;28;20171;-79
2023/08/31 03:43:28;;;;;;;7.80;4.10;;;13.00;99.90;;;;;;5116955;28;20220;-79
2023/08/31 03:45:55;;;;;;;9.47;4.50;;;13.00;99.90;;;;;;5116062;28;20171;-79
2023/08/31 03:48:22;;;;;;;7.37;4.20;;;13.00;99.90;;;;;;5116867;28;20179;-78
2023/08/31 03:50:55;;;;;;;6.47;3.87;;;13.10;99.90;;;;;;5116498;28;20639;-78
2023/08/31 03:53:20;;;;;;;4.23;3.60;;;13.00;99.90;;;;;;5114954;28;20164;-79
2023/08/31 03:55:46;;;;;;;4.20;3.80;;;13.00;99.90;;;;;;5116416;28;20293;-78
2023/08/31 03:58:12;;;;;;;4.93;4.23;;;13.10;99.90;;;;;;5116248;28;20159;-79
2023/08/31 04:00:38;;;;;;;5.60;4.27;;;13.00;99.90;;;;;;5116192;28;20171;-79
2023/08/31 04:03:05;;;;;;;4.00;3.60;;;13.00;99.90;;;;;;5116209;28;20175;-78
2023/08/31 04:05:34;;;;;;;5.00;3.97;;;13.10;99.90;;;;;;5116196;28;20171;-78
2023/08/31 04:08:00;;;;;;;4.83;4.00;;;13.10;99.90;;;;;;5116275;28;20216;-78
2023/08/31 04:10:26;;;;;;;4.97;4.50;;;13.00;99.90;;;;;;5114430;28;20184;-77
2023/08/31 04:12:52;;;;;;;6.70;4.73;;;13.00;99.90;;;;;;5115763;28;20175;-77
2023/08/31 04:15:17;;;;;;;4.70;4.17;;;13.00;99.90;;;;;;5115464;28;20207;-79
2023/08/31 04:17:43;;;;;;;8.20;4.83;;;13.00;99.90;;;;;;5115327;28;20242;-78
2023/08/31 04:20:10;;;;;;;4.73;4.33;;;13.00;99.90;;;;;;5115694;28;20242;-79
2023/08/31 04:22:36;;;;;;;5.30;4.30;;;13.10;99.90;;;;;;5114478;28;20213;-79
2023/08/31 04:25:02;;;;;;;4.87;4.43;;;13.00;99.90;;;;;;5115914;28;20618;-79
2023/08/31 04:27:30;;;;;;;5.57;4.50;;;13.00;99.90;;;;;;5115462;28;20175;-79
2023/08/31 04:29:55;;;;;;;4.67;4.27;;;12.90;99.90;;;;;;5115408;28;20250;-79
2023/08/31 04:32:21;;;;;;;8.47;4.60;;;12.90;99.90;;;;;;5115245;28;20258;-79
2023/08/31 04:34:46;;;;;;;8.27;4.67;;;12.90;99.90;;;;;;5115356;28;20211;-78
2023/08/31 04:37:12;;;;;;;6.07;5.13;;;13.00;99.90;;;;;;5115556;28;20631;-79
2023/08/31 04:39:38;;;;;;;7.13;4.37;;;12.90;99.90;;;;;;5114935;28;20171;-79
2023/08/31 04:42:04;;;;;;;9.50;4.60;;;12.90;99.90;;;;;;5115435;28;20167;-79
2023/08/31 04:44:30;;;;;;;7.33;4.50;;;12.90;99.90;;;;;;5113504;28;20188;-79
2023/08/31 04:46:55;;;;;;;6.67;4.90;;;12.90;99.90;;;;;;5114926;28;20163;-80
2023/08/31 04:49:21;;;;;;;7.70;4.57;;;12.80;99.90;;;;;;5114975;28;20164;-80
2023/08/31 04:51:47;;;;;;;5.23;4.83;;;12.80;99.90;;;;;;5115131;28;20171;-79
2023/08/31 04:54:12;;;;;;;6.40;5.13;;;12.80;99.90;;;;;;5114680;28;20564;-79
2023/08/31 04:56:38;;;;;;;8.87;4.87;;;12.80;99.90;;;;;;5114993;28;20193;-79
2023/08/31 04:59:04;;;;;;;5.07;4.57;;;12.80;99.90;;;;;;5114737;28;20171;-79
2023/08/31 05:01:29;;;;;;;6.13;4.80;;;12.80;99.90;;;;;;5114567;28;20171;-79
2023/08/31 05:03:55;;;;;;;6.23;4.63;;;12.80;99.90;;;;;;5114467;28;20527;-79
2023/08/31 05:06:20;;;;;;;5.10;4.60;;;12.90;99.90;;;;;;5114683;28;20182;-79
2023/08/31 05:08:49;;;;;;;7.73;4.47;;;12.90;99.90;;;;;;5114774;28;20163;-79
2023/08/31 05:11:15;;;;;;;5.07;4.57;;;12.90;99.90;;;;;;5114108;28;20214;-78
2023/08/31 05:13:42;;;;;;;4.80;4.00;;;13.10;99.90;;;;;;5112766;28;20206;-79
2023/08/31 05:16:11;;;;;;;7.20;4.50;;;13.40;99.90;;;;;;5114685;28;20202;-80
2023/08/31 05:18:38;;;;;;;4.77;4.10;;;13.70;99.90;;;;;;5113867;28;20230;-79
2023/08/31 05:21:04;;;;;;;4.53;3.83;;;14.00;99.90;;;;;;5113712;28;20171;-78
2023/08/31 05:23:30;;;;;;;7.10;4.00;;;14.30;99.90;;;;;;5114198;28;20171;-78
2023/08/31 05:25:58;;;;;;;7.53;4.00;;;14.60;99.90;;;;;;5112371;28;20182;-79
2023/08/31 05:28:24;;;;;;;3.53;3.23;;;15.00;99.90;;;;;;5113748;28;20167;-78
2023/08/31 05:30:52;;;;;;;4.47;3.73;;;15.80;99.90;;;;;;5114114;28;20186;-78
2023/08/31 05:33:18;;;;;;;6.70;3.40;;;16.50;99.90;;;;;;5114237;28;20174;-77
2023/08/31 05:35:44;;;;;;;6.93;3.67;;;16.80;99.90;;;;;;5113633;28;20589;-78
2023/08/31 05:38:10;;;;;;;7.80;3.60;;;17.10;99.90;;;;;;5113973;28;20191;-78
2023/08/31 05:40:36;;;;;;;16.70;4.17;;;17.50;99.90;;;;;;5112213;28;20262;-78
2023/08/31 05:43:02;;;;;;;6.47;3.50;;;17.80;99.90;;;;;;5113063;28;20173;-77
2023/08/31 05:45:32;;;;;;;9.77;3.55;;;17.90;99.90;;;;;;5114082;28;20229;-77
2023/08/31 05:47:57;;;;;;;9.43;3.77;;;18.20;99.90;;;;;;5113492;28;20660;-77
2023/08/31 05:50:23;;;;;;;4.72;3.05;;;17.80;99.90;;;;;;5113201;28;20262;-79
2023/08/31 05:52:48;;;;;;;7.20;3.70;;;17.00;99.90;;;;;;5112598;28;20175;-77
2023/08/31 05:55:14;;;;;;;9.47;3.63;;;16.80;99.90;;;;;;5113553;28;20286;-78
2023/08/31 05:57:40;;;;;;;9.37;3.17;;;16.60;99.90;;;;;;5112751;28;20300;-78
2023/08/31 06:00:08;;;;;;;7.00;3.40;;;17.10;99.90;;;;;;5113548;28;20214;-78
2023/08/31 06:02:33;;;;;;;4.22;3.30;;;17.70;99.90;;;;;;5113660;28;20182;-79
2023/08/31 06:04:59;;;;;;;5.63;3.15;;;18.30;99.90;;;;;;5112793;28;20614;-79
2023/08/31 06:07:25;;;;;;;7.47;3.25;;;18.70;99.90;;;;;;5113342;28;20615;-79
2023/08/31 06:09:50;;;;;;;6.75;3.10;;;19.10;99.90;;;;;;5113115;28;20214;-78
2023/08/31 06:12:16;;;;;;;10.20;3.28;;;19.80;99.90;;;;;;5112847;28;20186;-78
2023/08/31 06:14:41;;;;;;;7.10;3.25;;;20.40;99.90;;;;;;5113125;28;20211;-78
2023/08/31 06:17:08;;;;;;;10.27;3.65;;;20.80;99.90;;;;;;5113359;28;20522;-78
2023/08/31 06:19:34;;;;;;;11.45;3.47;;;21.80;99.90;;;;;;5093647;28;20226;-79
2023/08/31 06:21:59;;;;;;;8.18;3.30;;;21.40;99.90;;;;;;5115766;28;20648;-76
2023/08/31 06:24:25;;;;;;;7.00;3.40;;;22.10;99.90;;;;;;5116021;28;20169;-78
2023/08/31 06:26:51;;;;;;;6.30;3.63;;;22.00;99.90;;;;;;5118217;28;20198;-75
2023/08/31 06:29:17;;;;;;;6.90;3.20;;;21.80;99.90;;;;;;5114665;28;20269;-77
2023/08/31 06:31:43;;;;;;;9.15;3.47;;;22.30;99.90;;;;;;5113850;28;20590;-76
2023/08/31 06:34:09;;;;;;;9.70;3.08;;;23.10;99.90;;;;;;5113806;28;20278;-76
2023/08/31 06:36:34;;;;;;;6.90;3.33;;;22.80;99.80;;;;;;5116312;28;20250;-77
2023/08/31 06:39:00;;;;;;;6.40;3.15;;;22.40;99.90;;;;;;5115049;28;20702;-76
2023/08/31 06:41:25;;;;;;;9.15;3.30;;;22.30;99.90;;;;;;5121108;28;20659;-77
2023/08/31 06:43:51;;;;;;;7.50;3.38;;;21.70;99.90;;;;;;5121005;28;20223;-76
2023/08/31 06:46:17;;;;;;;11.10;3.20;;;22.10;99.90;;;;;;5119328;28;20217;-76
2023/08/31 06:48:42;;;;;;;8.48;3.42;;;22.70;99.90;;;;;;5119888;28;20167;-78
2023/08/31 06:51:08;;;;;;;8.20;3.58;;;23.30;99.70;;;;;;5119862;27;20231;-77
2023/08/31 06:53:34;;;;;;;5.57;3.30;;;23.40;99.10;;;;;;5119098;28;20216;-78
2023/08/31 06:55:59;;;;;;;7.75;3.10;;;23.40;99.30;;;;;;5104137;28;20197;-78
2023/08/31 06:58:25;;;;;;;5.35;3.20;;;24.20;98.10;;;;;;5076257;28;20640;-76
2023/08/31 07:00:50;;;;;;;4.70;2.70;;;24.70;96.80;;;;;;5087810;28;20171;-75
2023/08/31 07:03:16;;;;;;;5.90;3.00;;;25.20;95.10;;;;;;5090274;28;20179;-75
2023/08/31 07:05:43;;;;;;;7.63;2.95;;;26.20;93.60;;;;;;5091048;28;20204;-77
2023/08/31 07:08:08;;;;;;;6.20;3.05;;;25.90;91.90;;;;;;5097401;28;20179;-82
2023/08/31 07:10:38;;;;;;;8.10;3.05;;;26.20;92.00;;;;;;5088156;28;20224;-77
2023/08/31 07:13:04;;;;;;;5.07;2.67;;;26.60;90.90;;;;;;5082108;28;20185;-75
2023/08/31 07:15:30;;;;;;;7.53;2.80;;;27.60;84.40;;;;;;5090653;28;20223;-75
2023/08/31 07:17:55;;;;;;;6.25;2.90;;;26.90;86.60;;;;;;5081618;28;20534;-78
2023/08/31 07:20:21;;;;;;;6.45;2.90;;;26.70;88.40;;;;;;5086569;28;20285;-76
2023/08/31 07:22:47;;;;;;;7.78;3.20;;;26.80;88.70;;;;;;5087122;28;20710;-75
2023/08/31 07:25:12;;;;;;;6.05;3.25;;;27.20;84.40;;;;;;5094616;28;20225;-77
2023/08/31 07:27:39;;;;;;;8.00;3.17;;;27.10;85.00;;;;;;5089187;28;20247;-75
2023/08/31 07:30:06;;;;;;;9.68;3.35;;;27.00;87.10;;;;;;5077794;28;20205;-80
2023/08/31 07:32:32;;;;;;;6.72;3.05;;;26.40;88.30;;;;;;5079696;28;20172;-76
2023/08/31 07:34:57;;;;;;;7.65;2.88;;;27.10;85.10;;;;;;5088533;28;20273;-75
2023/08/31 07:37:23;;;;;;;6.40;3.38;;;27.70;81.20;;;;;;5085680;28;20555;-79
2023/08/31 07:39:49;;;;;;;5.97;2.95;;;28.40;79.30;;;;;;5077975;28;20177;-78
2023/08/31 07:42:14;;;;;;;7.82;2.90;;;28.60;75.50;;;;;;5079839;28;20693;-77
2023/08/31 07:44:41;;;;;;;6.32;3.17;;;28.70;75.70;;;;;;5091602;28;20179;-80
2023/08/31 07:47:07;;;;;;;6.63;3.25;;;29.20;72.00;;;;;;5080211;28;20199;-78
2023/08/31 07:49:33;;;;;;;6.00;3.10;;;29.30;69.80;;;;;;5086880;28;20179;-77
2023/08/31 07:51:59;;;;;;;3.58;2.75;;;29.00;70.90;;;;;;5075365;28;20255;-80
2023/08/31 07:54:25;;;;;;;7.72;3.38;;;29.30;69.50;;;;;;5087292;28;20675;-79
2023/08/31 07:56:51;;;;;;;13.10;3.33;;;28.80;70.20;;;;;;5088915;28;20225;-79
2023/08/31 07:59:18;;;;;;;5.85;3.28;;;29.00;71.90;;;;;;5080267;28;20187;-73
2023/08/31 08:01:44;;;;;;;6.82;3.30;;;29.20;69.00;;;;;;5075351;28;20176;-76
2023/08/31 08:04:11;;;;;;;7.18;3.10;;;28.90;70.10;;;;;;5074601;28;20172;-76
2023/08/31 08:06:37;;;;;;;7.80;3.10;;;27.90;74.20;;;;;;5076332;28;20538;-77
2023/08/31 08:09:04;;;;;;;5.40;2.83;;;27.90;74.40;;;;;;5096070;28;20194;-74
2023/08/31 08:11:30;;;;;;;4.88;2.90;;;28.90;71.70;;;;;;5084230;28;20187;-75
2023/08/31 08:13:56;;;;;;;9.98;3.22;;;29.50;67.90;;;;;;5079562;28;20204;-76
2023/08/31 08:16:21;;;;;;;3.92;2.90;;;29.40;66.40;;;;;;5079479;28;20177;-75
2023/08/31 08:18:47;;;;;;;6.32;3.17;;;28.60;67.10;;;;;;5072351;28;20216;-77
2023/08/31 08:21:13;;;;;;;5.22;2.85;;;27.80;72.40;;;;;;5071468;28;20567;-77
2023/08/31 08:23:38;;;;;;;7.47;2.92;;;28.00;73.60;;;;;;5084705;28;20557;-76
2023/08/31 08:26:04;;;;;;;5.93;3.40;;;27.90;72.20;;;;;;5076503;28;20199;-76
2023/08/31 08:28:30;;;;;;;9.27;4.13;;;28.10;74.20;;;;;;5076439;28;20210;-75
2023/08/31 08:30:55;;;;;;;7.05;3.70;;;28.10;73.60;;;;;;5073222;28;20222;-77
2023/08/31 08:33:21;;;;;;;6.97;3.30;;;28.70;71.30;;;;;;5075654;28;20255;-77
2023/08/31 08:35:46;;;;;;;6.22;3.08;;;28.70;72.20;;;;;;5072656;28;20235;-76
2023/08/31 08:38:12;;;;;;;5.47;3.35;;;28.60;71.40;;;;;;5073844;28;20242;-77
2023/08/31 08:40:38;;;;;;;5.57;2.90;;;27.90;75.00;;;;;;5073261;28;20534;-76
2023/08/31 08:43:07;;;;;;;12.10;3.67;;;28.70;72.80;;;;;;5075414;28;20181;-77
2023/08/31 08:45:38;;;;;;;7.82;3.25;;;29.60;69.90;;;;;;5078194;28;20203;-76
2023/08/31 08:48:08;;;;;;;7.50;3.40;;;29.10;69.00;;;;;;5073754;28;20256;-77
2023/08/31 08:50:36;;;;;;;5.18;3.20;;;28.40;71.00;;;;;;5073686;28;20168;-78
2023/08/31 08:53:03;;;;;;;10.35;3.60;;;27.70;74.50;;;;;;5073059;28;20195;-75
2023/08/31 08:55:29;;;;;;;4.68;2.95;;;28.80;72.40;;;;;;5088158;28;20253;-77
2023/08/31 08:57:55;;;;;;;6.00;3.17;;;28.40;70.80;;;;;;5094282;28;20168;-75
2023/08/31 09:00:21;;;;;;;5.78;3.13;;;27.90;74.30;;;;;;5077724;28;20177;-77
2023/08/31 09:02:47;;;;;;;9.95;3.40;;;27.70;74.30;;;;;;5080871;28;20177;-78
2023/08/31 09:05:12;;;;;;;5.35;3.03;;;27.90;76.30;;;;;;5077415;28;20168;-76
2023/08/31 09:07:59;;;;;;;5.35;3.22;;;28.60;72.60;;;;;;5072757;28;20320;-76
2023/08/31 09:10:32;;;;;;;6.07;3.35;;;28.90;70.60;;;;;;5073830;28;20176;-77
2023/08/31 09:12:59;;;;;;;4.43;3.33;;;28.50;70.50;;;;;;5075648;28;20183;-75
2023/08/31 09:15:25;;;;;;;5.80;3.20;;;28.20;74.50;;;;;;5075733;28;20219;-76
2023/08/31 09:17:51;;;;;;;5.88;3.05;;;28.80;71.70;;;;;;5076982;28;20160;-78
2023/08/31 09:20:17;;;;;;;6.70;3.28;;;29.40;68.70;;;;;;5078689;28;20620;-75
2023/08/31 09:22:48;;;;;;;5.70;3.10;;;29.10;68.80;;;;;;5074153;28;20184;-78
2023/08/31 09:25:14;;;;;;;8.27;3.95;;;29.20;67.10;;;;;;5077506;28;20183;-77
2023/08/31 09:27:40;;;;;;;8.77;2.92;;;29.20;67.00;;;;;;5072947;28;20223;-76
2023/08/31 09:30:08;;;;;;;5.43;3.10;;;28.90;68.00;;;;;;5088546;28;20184;-76
2023/08/31 09:32:35;;;;;;;5.30;3.10;;;29.10;68.80;;;;;;5075932;28;20305;-76
2023/08/31 09:35:03;;;;;;;7.32;3.30;;;29.10;66.80;;;;;;5077676;28;20694;-80
2023/08/31 09:37:29;;;;;;;4.93;3.15;;;28.40;69.00;;;;;;5089465;28;20230;-78
2023/08/31 09:39:54;;;;;;;5.50;3.38;;;27.50;72.50;;;;;;5090993;28;20670;-77
2023/08/31 09:42:20;;;;;;;5.22;3.42;;;27.00;74.60;;;;;;5075330;28;20226;-81
2023/08/31 09:44:49;;;;;;;6.43;3.35;;;26.60;76.20;;;;;;5079460;28;20200;-76
2023/08/31 09:47:16;;;;;;;5.60;3.20;;;26.60;77.70;;;;;;5076368;28;20173;-76
2023/08/31 09:49:43;;;;;;;6.70;3.03;;;26.00;81.20;;;;;;5087363;28;20176;-77
2023/08/31 09:52:11;;;;;;;5.40;3.30;;;26.80;82.60;;;;;;5083186;28;20222;-75
2023/08/31 09:54:37;;;;;;;3.85;2.85;;;26.40;81.60;;;;;;5081403;28;20218;-75
2023/08/31 09:57:04;;;;;;;5.50;3.25;;;26.50;82.50;;;;;;5074809;28;20183;-76
2023/08/31 09:59:31;;;;;;;5.90;3.35;;;27.30;76.80;;;;;;5095039;28;20183;-77
2023/08/31 10:01:57;;;;;;;5.20;3.13;;;26.00;81.80;;;;;;5080669;28;20168;-78
2023/08/31 10:04:23;;;;;;;6.05;3.10;;;26.40;83.20;;;;;;5080049;28;20298;-77
2023/08/31 10:06:50;;;;;;;4.35;2.95;;;27.10;80.20;;;;;;5086123;28;20177;-77
2023/08/31 10:09:16;;;;;;;4.22;3.28;;;26.40;81.90;;;;;;5079679;28;20559;-78
2023/08/31 10:11:46;;;;;;;5.63;2.85;;;25.70;85.60;;;;;;5080545;28;20168;-75
2023/08/31 10:14:13;;;;;;;6.00;3.22;;;24.70;89.40;;;;;;5078221;28;20694;-76
2023/08/31 10:16:44;;;;;;;5.07;3.20;;;23.90;93.60;;;;;;5080102;28;20192;-78
2023/08/31 10:19:10;;;;;;;5.55;3.35;;;23.70;94.50;;;;;;5073631;28;20273;-78
2023/08/31 10:21:35;;;;;;;6.25;3.08;;;23.40;95.70;;;;;;5082693;28;20259;-78
2023/08/31 10:24:01;;;;;;;4.95;3.03;;;24.00;95.60;;;;;;5084652;28;20183;-78
2023/08/31 10:26:29;;;;;;;8.07;3.53;;;24.60;94.80;;;;;;5080993;28;20707;-80
2023/08/31 10:28:56;;;;;;;6.20;3.67;;;24.90;93.60;;;;;;5084427;28;20600;-77
2023/08/31 10:31:23;;;;;;;5.72;2.90;;;24.50;94.50;;;;;;5083942;28;20172;-80
2023/08/31 10:34:09;;;;;;;3.92;2.90;;;24.50;92.90;;;;;;5083432;28;20184;-77
2023/08/31 10:36:40;;;;;;;4.68;3.20;;;24.70;93.10;;;;;;5086169;28;20285;-77
2023/08/31 10:39:13;;;;;;;5.32;2.78;;;25.10;92.60;;;;;;5091996;28;20207;-76
2023/08/31 10:41:39;;;;;;;4.88;3.33;;;24.40;93.90;;;;;;5071928;28;20169;-76
2023/08/31 10:44:26;;;;;;;4.28;3.30;;;23.30;96.40;;;;;;5070957;28;20284;-75
2023/08/31 10:46:52;;;;;;;3.28;2.80;;;23.10;98.40;;;;;;5071886;28;20258;-76
2023/08/31 10:49:20;;;;;;;4.28;2.90;;;23.40;97.90;;;;;;5090876;28;20179;-75
2023/08/31 10:51:50;;;;;;;4.80;2.97;;;23.50;97.00;;;;;;5091207;28;20247;-76
2023/08/31 10:54:25;;;;;;;5.10;2.90;;;23.50;96.20;;;;;;5090685;28;20259;-74
2023/08/31 10:57:03;;;;;;;5.38;3.10;;;23.70;96.00;;;;;;5092043;28;20159;-76
2023/08/31 10:59:51;;;;;;;6.03;2.88;;;24.40;94.80;;;;;;5091929;28;20175;-79
2023/08/31 11:02:32;;;;;;;5.47;2.95;;;24.70;93.90;;;;;;5093018;28;20183;-77
2023/08/31 11:05:18;;;;;;;3.53;2.40;;;24.70;91.40;;;;;;5094529;28;20229;-78
2023/08/31 11:07:52;;;;;;;3.85;2.50;;;24.50;92.80;;;;;;5083339;28;20183;-78
2023/08/31 11:10:26;;;;;;;3.35;2.50;;;23.80;92.10;;;;;;5103100;28;20167;-76
2023/08/31 11:12:54;;;;;;;7.78;2.53;;;23.20;94.60;;;;;;5093553;28;20190;-77
2023/08/31 11:15:22;;;;;;;4.47;2.47;;;22.70;95.80;;;;;;5092710;28;20219;-77
2023/08/31 11:17:51;;;;;;;5.97;2.45;;;22.20;98.30;;;;;;5078381;28;20164;-77
2023/08/31 11:20:19;;;;;;;7.32;2.47;;;22.50;97.40;;;;;;5106436;28;20228;-81
2023/08/31 11:22:49;;;;;;;5.63;2.50;;;22.60;97.00;;;;;;5092507;28;20171;-80
2023/08/31 11:25:16;;;;;;;5.90;2.30;;;23.20;95.90;;;;;;5091823;28;20223;-79
2023/08/31 11:27:41;;;;;;;5.78;2.50;;;23.40;94.50;;;;;;5102775;28;20225;-76
2023/08/31 11:30:16;;;;;;;3.33;2.58;;;23.20;95.50;;;;;;5106084;28;20659;-78
2023/08/31 11:32:51;;;;;;;6.53;2.90;;;22.60;96.60;;;;;;5102505;28;20179;-75
2023/08/31 11:35:18;;;;;;;4.30;2.47;;;22.40;97.90;;;;;;5098949;28;20210;-79
2023/08/31 11:37:48;;;;;;;13.70;2.67;;;22.30;98.70;;;;;;5096782;28;20169;-78
2023/08/31 11:40:17;;;;;;;5.47;2.60;;;22.60;97.70;;;;;;5096247;28;20512;-80
2023/08/31 11:42:43;;;;;;;5.05;2.45;;;23.10;97.60;;;;;;5099193;27;20171;-78
2023/08/31 11:45:11;;;;;;;4.43;2.35;;;23.30;96.60;;;;;;5104910;28;20175;-83
2023/08/31 11:47:37;;;;;;;3.40;2.00;;;23.30;96.50;;;;;;5093250;28;20160;-82
2023/08/31 11:50:04;;;;;;;3.70;1.77;;;23.50;94.70;;;;;;5095832;28;20171;-78
2023/08/31 11:52:31;;;;;;;5.00;2.50;;;23.20;93.70;;;;;;5111392;28;20175;-78
2023/08/31 11:54:57;;;;;;;4.10;1.80;;;23.00;93.00;;;;;;5103785;28;20541;-77
2023/08/31 11:57:28;;;;;;;3.97;2.17;;;22.80;92.50;;;;;;5100470;28;20635;-79
2023/08/31 11:59:55;;;;;;;2.78;1.83;;;22.50;93.30;;;;;;5085360;28;20177;-79
2023/08/31 12:02:20;;;;;;;4.93;1.85;;;22.40;93.60;;;;;;5077270;28;20294;-78
2023/08/31 12:04:48;;;;;;;7.28;2.40;;;22.30;94.60;;;;;;5083140;28;20180;-77
2023/08/31 12:07:18;;;;;;;4.65;2.13;;;21.70;95.60;;;;;;5084446;28;20175;-81
2023/08/31 12:09:45;;;;;;;3.55;2.03;;;21.30;97.40;;;;;;5073736;28;20177;-76
2023/08/31 12:12:13;;;;;;;8.18;2.72;;;21.20;98.60;;;;;;5082739;28;20188;-78
2023/08/31 12:14:39;;;;;;;4.07;2.20;;;21.10;99.10;;;;;;5091899;28;20300;-81
2023/08/31 12:17:07;;;;;;;7.90;2.85;;;21.50;98.70;;;;;;5081601;28;20313;-81
2023/08/31 12:19:36;;;;;;;5.75;2.13;;;21.80;98.90;;;;;;5093642;28;20236;-78
2023/08/31 12:22:02;;;;;;;4.68;2.50;;;21.50;99.30;;;;;;5086645;28;20168;-80
2023/08/31 12:24:28;;;;;;;6.45;2.25;;;21.60;99.90;;;;;;5097438;28;20455;-84
2023/08/31 12:26:54;;;;;;;4.57;2.35;;;21.70;99.90;;;;;;5091917;28;20606;-79
2023/08/31 12:29:20;;;;;;;8.10;2.80;;;21.70;99.90;;;;;;5079053;28;20177;-80
2023/08/31 12:31:46;;;;;;;6.95;2.40;;;21.50;99.90;;;;;;5082737;28;20272;-78
2023/08/31 12:34:11;;;;;;;2.13;1.88;;;21.20;99.90;;;;;;5091752;28;20276;-80
2023/08/31 12:36:40;;;;;;;6.63;2.60;;;21.10;99.90;;;;;;5084547;28;20241;-86
2023/08/31 12:39:09;;;;;;;5.75;2.33;;;21.10;99.90;;;;;;5097149;28;20160;-76
2023/08/31 12:41:34;;;;;;;5.35;2.15;;;21.40;99.90;;;;;;5080866;28;20183;-84
2023/08/31 12:44:00;;;;;;;5.75;2.50;;;21.40;99.90;;;;;;5093955;28;20172;-79
2023/08/31 12:46:26;;;;;;;6.97;2.55;;;21.60;99.90;;;;;;5082967;28;20187;-82